Terminal Aerodrome Forecast
Issued by NWS St Louis, MO

Home | Current Version | Previous Version | Text Only | Print | Product List | Glossary On
Versions: 1 2 3 4 5 6 7 8 9 10 11 12 13 14 15 16 17 18 19 20 21 22 23 24 25 26 27 28
191
FTUS43 KLSX 031736
TAFCOU
TAF
KCOU 031736Z 0318/0418 12007KT P6SM OVC070
     FM040700 12007KT 4SM -RASN OVC025
     FM041200 13007KT 2SM -RASN BR OVC010
     FM041600 17007KT 5SM -RA OVC015=

USA.gov is the U.S. government's official web portal to all federal, state and local government web resources and services.